Tuesday, January 16, 2018, 5:19 PM GMT
Back to Local

CWJB, Ste Foy CS , Que.

Location: , , Canada Lat: 47.3
Local Time: 5:19 PM GMT (17:19 GMT) Lon: -71.267
Time Zone: GMT Elev: 298 ft

Show me the last for .
Show Decoded

2018-01-16 17:00 METAR CWJB 161700Z AUTO 06006KT M11/ RMK AO1 SOG 24 T1114 =
2018-01-16 16:00 METAR CWJB 161600Z AUTO 04005KT M12/ RMK AO1 SOG 24 T1118 =
2018-01-16 15:00 METAR CWJB 161500Z AUTO 03006KT M13/ RMK AO1 SOG 24 T1130 =
2018-01-16 14:00 METAR CWJB 161400Z AUTO 05007KT M13/ RMK AO1 SOG 24 T1125 =
2018-01-16 13:00 METAR CWJB 161300Z AUTO 06008KT M14/ RMK AO1 SOG 24 T1139 =
2018-01-16 12:00 METAR CWJB 161200Z AUTO 05006KT M14/ RMK AO1 SOG 24 T1141 =
2018-01-16 11:00 METAR CWJB 161100Z AUTO 03006KT M14/ RMK AO1 SOG 24 T1143 =
2018-01-16 10:00 METAR CWJB 161000Z AUTO 03007KT M14/ RMK AO1 SOG 24 T1141 =
2018-01-16 09:00 METAR CWJB 160900Z AUTO 05007KT M14/ RMK AO1 SOG 25 T1135 =
2018-01-16 08:00 METAR CWJB 160800Z AUTO 08006KT M13/ RMK AO1 SOG 25 T1134 =
2018-01-16 07:00 METAR CWJB 160700Z AUTO 05006KT M14/ RMK AO1 SOG 25 T1137 =
2018-01-16 06:00 METAR CWJB 160600Z AUTO 05008KT M14/ RMK AO1 SOG 25 T1139 =
2018-01-16 05:00 METAR CWJB 160500Z AUTO 07005KT M14/ RMK AO1 SOG 25 T1139 =
2018-01-16 04:00 METAR CWJB 160400Z AUTO 08008KT M14/ RMK AO1 SOG 25 T1141 =
2018-01-16 03:00 METAR CWJB 160300Z AUTO 05008KT M14/ RMK AO1 SOG 25 T1141 =
2018-01-16 02:00 METAR CWJB 160200Z AUTO 07011G17KT M14/ RMK AO1 SOG 25 PK WND 07018/0137 T1141 =
2018-01-16 01:00 METAR CWJB 160100Z AUTO 06010G17KT M15/ RMK AO1 SOG 25 PK WND 05018/0005 T1150 =
2018-01-16 00:00 METAR CWJB 160000Z AUTO 06010G17KT M15/ RMK AO1 SOG 25 PK WND 07017/2356 T1153 =
2018-01-15 23:00 METAR CWJB 152300Z AUTO 07009KT M15/ RMK AO1 SOG 25 PK WND 05017/2226 T1153 =
2018-01-15 22:00 METAR CWJB 152200Z AUTO 07009KT M15/ RMK AO1 SOG 25 PK WND 05020/2136 T1148 =
2018-01-15 21:00 METAR CWJB 152100Z AUTO 06010G16KT M15/ RMK AO1 SOG 25 PK WND 06018/2015 T1147 =
2018-01-15 20:00 METAR CWJB 152000Z AUTO 06010G16KT M14/ RMK AO1 SOG 25 PK WND 06018/1901 T1135 =
2018-01-15 19:00 METAR CWJB 151900Z AUTO 06012G20KT M14/ RMK AO1 SOG 26 PK WND 05020/1854 T1144 =
2018-01-15 18:00 METAR CWJB 151800Z AUTO 05012G19KT M15/ RMK AO1 SOG 25 PK WND 06021/1748 T1152 =

Support USWX by starting your Amazon purchase here.